logo
App data

Magma Tsunami

Magma Tsunami is a frenzied arcade platformer game. Beat your records in 1P or Co-op mode, and don't get caught by the Magma Tsunami!!! Could you stay alive for more than one minute??
Store | Hub | SteamDB | Site
Developer: StrangeLight Games Publisher: StrangeLight Games
Genre: Indie
Languages: English
Tags: Indie (23), Platformer (6)
Category: Single-player, Multi-player, Co-op, Shared/Split Screen, Steam Trading Cards, Partial Controller Support
Release date: Jun 1, 2016
Price: $0.99
Score rank: 64% Userscore: 85% Old userscore: 65%
Owners: 100,000 .. 200,000
Followers: 180
Peak concurrent players yesterday: 5
Playtime total: 06:55 (average) 07:16 (median)

Steam Spy is still in beta, so expect major bugs.

Owners data:

Access restricted.

This feature is only available to users with special access rights. Sorry.

If you want to proceed, you need to register or log in first and then back Steam Spy on Patreon. Look for Indie or Pro pledge.

Don't forget to use the same email as on Steam Spy!

Audience in 2 weeks:

Access restricted.

This feature is only available to users with special access rights. Sorry.

If you want to proceed, you need to register or log in first and then back Steam Spy on Patreon. Look for Indie or Pro pledge.

Don't forget to use the same email as on Steam Spy!

Peak daily concurrent players:

CCU data courtesy of SteamDB. Used with permission.

Hourly concurrent players:

YouTube:

The views data is based on top 50 videos uploaded last week. Actual number of views might be more than the number shown.

The displayed number of videos uploaded yesterday is limited to 50, so if there were more videos uploaded, the number will still show 50.

If the game has commonly used word as its name (like "FEAR" or "Volume") its number of Youtube views might be wrong.

Games similar to this one:

# Game Release date
Price
Score rank
(Userscore / Metascore)
Owners
Players
Playtime (Median)
1 Night Blights Apr 15, 2016 $4.99100% (100%)0 .. 20,0000%00:00 (00:00)
2 Carrie's Order Up! Sep 12, 2016 $2.9999% (98%)0 .. 20,0000%00:00 (00:00)
3 Luxor Evolved Mar 1, 2012 $9.9997% (97%)50,000 .. 100,0000.51%00:30 (00:10)
4 Hustle Cat Mar 16, 2016 $19.9995% (96%)20,000 .. 50,0000%00:00 (00:00)
5 A Good Snowman Is Hard To Build Feb 25, 2015 $9.9993% (95%)20,000 .. 50,0000%00:00 (00:00)
6 Beat Da Beat Mar 10, 2016 $1.9993% (95%)0 .. 20,00010%01:21 (00:27)
7 Chip's Challenge 2 May 28, 2015 $4.9990% (94%)20,000 .. 50,0000%00:00 (00:00)
8 Girls Like Robots Feb 14, 2014 $6.9987% (93%)100,000 .. 200,0000%00:00 (00:00)
9 Tennis in the Face Nov 18, 2015 $4.9987% (93%)0 .. 20,0000%00:00 (00:00)
10 Swapperoo Dec 18, 2015 $4.99N/A (N/A)0 .. 20,0000%00:00 (00:00)
11 [the Sequence] Mar 30, 2016 $1.9987% (93%)0 .. 20,0000%00:00 (00:00)
12 12 Labours of Hercules Mar 23, 2015 $2.9987% (93%)100,000 .. 200,0000.91%02:30 (01:46)
13 SquareCells Dec 7, 2015 $2.9984% (92%)20,000 .. 50,0001.49%10:17 (03:25)
14 Earthtongue Apr 27, 2015 $4.9984% (92%)20,000 .. 50,0000%00:00 (00:00)
15 Griptape Backbone May 5, 2017 Free80% (91%)0 .. 20,0000%00:00 (00:00)
16 Grapple Mar 9, 2015 $6.9980% (91%)20,000 .. 50,0000%00:00 (00:00)
17 The Jackbox Party Pack Nov 26, 2014 $24.9980% (91%)200,000 .. 500,0003.04%01:31 (01:37)
18 Tribloos 2 Jan 12, 2013 $4.9980% (91%)100,000 .. 200,0000%00:00 (00:00)
19 Frog Climbers Oct 6, 2016 $6.9977% (90%)20,000 .. 50,0000%00:00 (00:00)
20 On Rusty Trails Jun 13, 2016 $12.9977% (90%/77%)50,000 .. 100,0000%00:00 (00:00)
21 Think To Die 3 Mar 27, 2017 $4.99N/A (N/A)0 .. 20,0000%00:00 (00:00)
22 Clock Simulator Jul 20, 2016 $0.9974% (89%)20,000 .. 50,0000%00:00 (00:00)
23 Forgotten, Not Lost - A Kinetic Novel Apr 1, 2016 $1.9974% (89%)50,000 .. 100,0000%00:00 (00:00)
24 Recursion Deluxe Feb 12, 2016 $4.9974% (89%)0 .. 20,0000%00:00 (00:00)
25 The Reject Demon: Toko Chapter 0 — Prelude May 9, 2015 $4.9974% (89%)0 .. 20,0000%00:00 (00:00)
26 12 Labours of Hercules IV: Mother Nature (Platinum Edition) Dec 25, 2015 $2.9974% (89%)20,000 .. 50,0001.72%16:01 (10:40)
27 Koala Kids Jun 22, 2015 $1.9974% (89%)20,000 .. 50,0000%00:00 (00:00)
28 12 Labours of Hercules V: Kids of Hellas (Platinum Edition) Jun 17, 2016 $2.9974% (89%)20,000 .. 50,0003.49%02:57 (02:16)
29 This Starry Midnight We Make Jun 1, 2015 $9.99N/A (N/A)0 .. 20,0000%00:00 (00:00)
30 Bob Was Hungry Aug 19, 2015 $9.9971% (88%)20,000 .. 50,0000%00:00 (00:00)
31 Without Within 2 Nov 9, 2015 $4.9971% (88%)0 .. 20,0000%00:00 (00:00)
32 Thrillville: Off the Rails Oct 9, 2007 $9.9969% (87%/70%)20,000 .. 50,0000%00:00 (00:00)
33 Asphyxia Aug 4, 2015 $5.9969% (87%)20,000 .. 50,0000%00:00 (00:00)
34 Vampires: Guide Them to Safety! Oct 22, 2014 $4.99N/A (N/A)0 .. 20,0000%00:00 (00:00)
35 Loot Hound Nov 17, 2015 $2.9969% (87%)0 .. 20,0000%00:00 (00:00)
36 Oozi: Earth Adventure Dec 5, 2013 $4.9969% (87%/66%)50,000 .. 100,0000.38%03:20 (01:06)
37 Army of Pixels Oct 29, 2015 $4.99N/A (N/A)0 .. 20,0000%00:00 (00:00)
38 Anode Oct 5, 2015 $3.9966% (86%)20,000 .. 50,0000%00:00 (00:00)
39 Darkarta: A Broken Heart's Quest Collector's Edition Mar 8, 2017 $9.9966% (86%)20,000 .. 50,0000%00:00 (00:00)
40 In Between Aug 21, 2015 $11.9966% (86%/68%)50,000 .. 100,0000%00:00 (00:00)
41 Cursed Sight Aug 3, 2015 $5.9966% (86%)0 .. 20,0000%00:00 (00:00)
42 Sophie's Curse Mar 16, 2016 $4.9966% (86%)50,000 .. 100,0000%00:00 (00:00)
43 Psycho Starship Rampage Sep 28, 2015 $9.9963% (85%)0 .. 20,0000%00:00 (00:00)
44 Sentinel 4: Dark Star Aug 13, 2015 $6.99N/A (N/A)0 .. 20,0000%00:00 (00:00)
45 Alpha Runner Sep 2, 2015 $0.9963% (85%)100,000 .. 200,0000.78%04:41 (01:33)
46 Dead Man's Draw Feb 6, 2014 $6.9961% (84%)20,000 .. 50,0000%00:00 (00:00)
47 RePete Mar 9, 2016 $1.99N/A (N/A)0 .. 20,0000%00:00 (00:00)
48 Job the Leprechaun Jul 31, 2015 $2.9961% (84%)20,000 .. 50,0000%00:00 (00:00)
49 BAD END Nov 25, 2015 $1.9961% (84%)0 .. 20,0000%00:00 (00:00)
50 Cyto Jul 10, 2014 $3.9958% (83%)20,000 .. 50,0000%00:00 (00:00)
51 Governor of Poker 2 - Premium Edition Oct 11, 2010 $14.9958% (83%)20,000 .. 50,0000%00:00 (00:00)
52 Steam and Metal Feb 9, 2015 $4.9958% (83%)0 .. 20,0000%00:00 (00:00)
53 Gridworld Dec 29, 2015 $0.9958% (83%)0 .. 20,0006.25%00:27 (00:09)
54 Cute Things Dying Violently Sep 2, 2015 $2.99N/A (N/A)0 .. 20,0000%00:00 (00:00)
55 Collisions Jul 28, 2015 $3.9956% (82%)20,000 .. 50,0000%00:00 (00:00)
56 Stay Alight Mar 2, 2015 $3.9954% (81%)20,000 .. 50,0000%00:00 (00:00)
57 Dungeon Painter Studio Feb 26, 2017 $14.9952% (80%)20,000 .. 50,00013.33%18:43 (24:29)
58 Space Drifters 2D Mar 28, 2016 $0.99N/A (N/A)20,000 .. 50,0000%00:00 (00:00)
59 Optika Aug 26, 2016 $4.9949% (79%)20,000 .. 50,0001.35%02:59 (00:59)
60 Star Sky - ブルームーン Oct 23, 2015 $3.9949% (79%)0 .. 20,0002.78%00:30 (00:10)
61 The Last NightMary - A Lenda do Cabeça de Cuia Nov 2, 2015 $0.5149% (79%)50,000 .. 100,0000%00:00 (00:00)
62 GamersGoMakers Aug 8, 2014 $9.9949% (79%)0 .. 20,0000%00:00 (00:00)
63 Terraform May 8, 2015 $2.99N/A (N/A)0 .. 20,0000%00:00 (00:00)
64 Egg Returns Home May 5, 2015 $0.9949% (79%)20,000 .. 50,0000%00:00 (00:00)
65 Archimedes Oct 6, 2016 $2.9949% (79%)100,000 .. 200,0000%00:00 (00:00)
66 The Survey Oct 27, 2016 $4.9948% (78%)0 .. 20,0000%00:00 (00:00)
67 Farm for your Life Jun 5, 2013 $9.9948% (78%)20,000 .. 50,0000%00:00 (00:00)
68 Air Missions: HIND Mar 21, 2016 $16.9948% (78%)0 .. 20,0000%00:00 (00:00)
69 Particulars Nov 19, 2014 $5.9948% (78%/74%)20,000 .. 50,0000%00:00 (00:00)
70 SinaRun Oct 26, 2015 $2.9946% (77%)20,000 .. 50,0000%00:00 (00:00)
71 Neon Prism Nov 18, 2016 $4.9946% (77%)50,000 .. 100,0000.59%07:41 (05:07)
72 Paranormal State: Poison Spring Nov 26, 2013 $9.9946% (77%)20,000 .. 50,0000%00:00 (00:00)
73 Beeftacular Aug 26, 2016 $2.9946% (77%)0 .. 20,0000%00:00 (00:00)
74 Rescue Team 5 Sep 30, 2015 $3.9944% (76%)20,000 .. 50,0000%00:00 (00:00)
75 Pixel Puzzles 2: Birds Feb 20, 2015 $9.9944% (76%)200,000 .. 500,0000.41%06:29 (04:19)
76 Where are my Internets? Dec 16, 2016 $2.9944% (76%)20,000 .. 50,0000%00:00 (00:00)
77 ConflictCraft Dec 8, 2016 $2.99N/A (N/A)20,000 .. 50,0000%00:00 (00:00)
78 hackmud Sep 22, 2016 $19.9944% (76%)20,000 .. 50,0003.57%03:52 (01:17)
79 The Deletion Jul 30, 2015 $1.9942% (75%)20,000 .. 50,0001.19%00:18 (00:06)
80 Fate Tectonics Sep 9, 2015 $9.9942% (75%)0 .. 20,0003.33%00:52 (00:34)
81 Kombine Oct 14, 2016 $0.9942% (75%)20,000 .. 50,0001.04%06:14 (02:04)
82 MOAI 2: Path to Another World Apr 11, 2015 $7.99N/A (N/A)0 .. 20,0000%00:00 (00:00)
83 GO AWAY, THERE'S KUMIS OVER THERE! Oct 28, 2016 $0.9937% (72%)50,000 .. 100,0000.38%12:52 (04:17)
84 Idle Evolution Apr 3, 2017 $4.9937% (72%)0 .. 20,0000%00:00 (00:00)
85 Laserlife Sep 22, 2015 $14.9935% (71%)0 .. 20,0000%00:00 (00:00)
86 Axel & Pixel Oct 6, 2010 $1.24N/A (N/A)20,000 .. 50,0000%00:00 (00:00)
87 Caravanserail Mar 10, 2016 $2.99N/A (N/A)0 .. 20,0000%00:00 (00:00)
88 Turbo Pug 3D Sep 20, 2016 $1.9935% (71%)200,000 .. 500,0000%00:00 (00:00)
89 Western FPS Mar 13, 2017 $0.9933% (70%)200,000 .. 500,0000.22%07:20 (02:26)
90 Zipple World Jan 19, 2016 $4.99N/A (N/A)0 .. 20,0000%00:00 (00:00)
91 Wanda - A Beautiful Apocalypse Jun 3, 2016 $1.9931% (69%)100,000 .. 200,0000%00:00 (00:00)
92 Pester Jan 25, 2013 $0.4930% (68%)100,000 .. 200,0000%00:00 (00:00)
93 Sinister City Oct 18, 2014 $0.9930% (68%)100,000 .. 200,0000%00:00 (00:00)
94 Love in the Glen Jun 8, 2016 $5.99N/A (N/A)20,000 .. 50,0000%00:00 (00:00)
95 Alter World May 29, 2015 $1.9928% (67%)100,000 .. 200,0000.22%13:28 (04:29)
96 Totally Unbalanced Jul 29, 2016 $2.9928% (67%)0 .. 20,0000%00:00 (00:00)
97 Mind Games Mar 4, 2016 $2.9928% (67%)0 .. 20,0000%00:00 (00:00)
98 One Last Chance Apr 7, 2016 $3.9928% (67%)20,000 .. 50,0000%00:00 (00:00)
99 1931: Scheherazade at the Library of Pergamum Mar 26, 2015 $14.9928% (67%)0 .. 20,0000%00:00 (00:00)
100 Lift It Jan 20, 2017 $4.9927% (66%)50,000 .. 100,0001.63%02:38 (02:37)
101 Broken Dreams Feb 19, 2016 $1.9927% (66%)200,000 .. 500,0000.15%04:19 (02:52)
102 XCavalypse Jun 6, 2016 $5.99N/A (N/A)0 .. 20,0000%00:00 (00:00)
103 Highborn Feb 19, 2013 $1.9924% (64%)0 .. 20,0000%00:00 (00:00)
104 Herding Dog Dec 25, 2015 $2.99N/A (N/A)0 .. 20,0000%00:00 (00:00)
105 Power of Love Jul 21, 2015 $0.9922% (62%)20,000 .. 50,0000%00:00 (00:00)
106 Marble Duel Nov 12, 2015 $4.9922% (62%)50,000 .. 100,0000%00:00 (00:00)
107 Winexy Jan 13, 2017 $0.4921% (61%)20,000 .. 50,0000%00:00 (00:00)
108 Goodnight Butcher Dec 18, 2015 $1.99N/A (N/A)20,000 .. 50,0000%00:00 (00:00)
109 Won't You Be My Laser? Sep 2, 2016 $0.99N/A (N/A)0 .. 20,0001.69%05:49 (01:56)
110 Football Blitz Jan 4, 2017 $3.99N/A (N/A)0 .. 20,0000%00:00 (00:00)
111 FBI MANIA Jan 31, 2017 $0.9920% (60%)100,000 .. 200,0000%00:00 (00:00)
112 Star Chronicles: Delta Quadrant Jul 7, 2015 $0.9918% (59%)200,000 .. 500,0000.09%01:26 (00:28)
113 Wildlife Park 2 - Dino World Mar 30, 2012 $3.9918% (58%)20,000 .. 50,0000%00:00 (00:00)
114 Way of Gold and Steel Aug 17, 2015 $8.9916% (56%)20,000 .. 50,0000%00:00 (00:00)
115 Color Syndrome Aug 1, 2016 $0.9916% (56%)20,000 .. 50,0000%00:00 (00:00)
116 Bloop Reloaded Feb 6, 2015 $9.9916% (56%)100,000 .. 200,0000.2%03:32 (01:10)
117 Drizzlepath Mar 12, 2015 $2.9914% (54%)0 .. 20,0000%00:00 (00:00)
118 Dance Magic Feb 15, 2016 $9.99N/A (N/A)0 .. 20,0000%00:00 (00:00)
119 Bunny & Piggy Nov 30, 2016 $0.9914% (54%)20,000 .. 50,0000.63%01:05 (00:21)
120 Backgammon Blitz Nov 12, 2015 $3.9914% (54%)0 .. 20,0000%00:00 (00:00)
121 Sky to Fly: Soulless Leviathan Jul 22, 2016 $3.9913% (53%)0 .. 20,0000%00:00 (00:00)
122 Reptilian Rebellion Aug 7, 2016 $0.9913% (53%)20,000 .. 50,0000%00:00 (00:00)
123 Quantum Rush Champions Dec 4, 2014 $9.9913% (52%)20,000 .. 50,0001.08%00:13 (00:04)
124 Autumn May 14, 2016 $2.9911% (50%)50,000 .. 100,0000%00:00 (00:00)
125 Rage Runner May 16, 2014 $4.99N/A (N/A)0 .. 20,0000%00:00 (00:00)
126 King's Guard TD Jun 8, 2016 $2.9911% (50%)100,000 .. 200,0000%00:00 (00:00)
127 Racecraft Mar 4, 2016 Free11% (49%)0 .. 20,0000%00:00 (00:00)
128 Ninja Stealth 2 Jan 30, 2017 $0.9910% (48%)20,000 .. 50,0002.7%02:28 (02:21)
129 Astro Emporia Feb 2, 2015 $0.9910% (47%)20,000 .. 50,0000%00:00 (00:00)
130 Melting Hearts: Our Love Will Grow 2 Apr 29, 2016 N/A8% (43%)20,000 .. 50,0000%00:00 (00:00)
131 iREC Jan 16, 2017 Free7% (42%)20,000 .. 50,0000%00:00 (00:00)
132 European Ship Simulator Nov 4, 2016 $19.996% (38%)50,000 .. 100,0000%00:00 (00:00)
133 Hide and Secret Treasure of the Ages Jun 17, 2016 $0.98N/A (N/A)0 .. 20,0000%00:00 (00:00)
134 Streets of Chaos Jan 23, 2015 $0.994% (34%)100,000 .. 200,0000%00:00 (00:00)
135 Space Hotel Jan 4, 2017 $1.994% (34%)0 .. 20,0000%00:00 (00:00)
136 Industry Transporters Aug 31, 2015 $9.99N/A (N/A)0 .. 20,0000%00:00 (00:00)
137 Burst Mar 14, 2016 $1.99N/A (N/A)100,000 .. 200,0000%00:00 (00:00)
138 Labyrinth Simulator Sep 21, 2015 $4.994% (31%)0 .. 20,0000%00:00 (00:00)
139 Robot vs Birds Zombies Jun 1, 2013 $0.994% (31%)0 .. 20,0000%00:00 (00:00)
140 Hyposphere May 5, 2016 $2.993% (25%)200,000 .. 500,0000%00:00 (00:00)
141 Cyber Team Manager Jan 8, 2016 $4.992% (20%)0 .. 20,0000%00:00 (00:00)
142 One way to exit Mar 12, 2016 $1.99N/A (N/A)200,000 .. 500,0000%00:00 (00:00)

Tags over time:

Access restricted.

This feature is only available to users with special access rights. Sorry.

If you want to proceed, you need to register or log in first and then back Steam Spy on Patreon. Look for Indie or Pro pledge.

Don't forget to use the same email as on Steam Spy!

Owners of this game also own:

Access restricted.

This feature is only available to users with special access rights. Sorry.

If you want to proceed, you need to register or log in first and then back Steam Spy on Patreon. Look for Indie or Pro pledge.

Don't forget to use the same email as on Steam Spy!

Playtime distribution:

Access restricted.

This feature is only available to users with special access rights. Sorry.

If you want to proceed, you need to register or log in first and then back Steam Spy on Patreon. Look for Indie or Pro pledge.

Don't forget to use the same email as on Steam Spy!

Playtime (2 weeks):

Access restricted.

This feature is only available to users with special access rights. Sorry.

If you want to proceed, you need to register or log in first and then back Steam Spy on Patreon. Look for Indie or Pro pledge.

Don't forget to use the same email as on Steam Spy!

User reviews:

Login required.

Please register or log in to see this information.